createdAt,value
2022-09-17T00:00:39.060Z,10.79
2022-09-17T00:01:39.065Z,10.79
2022-09-17T00:02:39.104Z,10.82
2022-09-17T00:03:38.994Z,10.82
2022-09-17T00:04:39.003Z,10.81
2022-09-17T00:05:38.959Z,10.78
2022-09-17T00:06:38.959Z,10.79
2022-09-17T00:07:38.960Z,10.78
2022-09-17T00:08:38.952Z,10.82
2022-09-17T00:09:38.911Z,10.81
2022-09-17T00:10:38.915Z,10.81
2022-09-17T00:11:38.900Z,10.78
2022-09-17T00:12:38.891Z,10.76
2022-09-17T00:13:38.891Z,10.78
2022-09-17T00:14:38.879Z,10.76
2022-09-17T00:15:38.853Z,10.76
2022-09-17T00:16:38.890Z,10.79
2022-09-17T00:17:38.822Z,10.79
2022-09-17T00:18:38.831Z,10.81
2022-09-17T00:19:38.800Z,10.79
2022-09-17T00:20:38.799Z,10.79
2022-09-17T00:21:38.781Z,10.79
2022-09-17T00:22:38.771Z,10.76
2022-09-17T00:23:38.772Z,10.76
2022-09-17T00:24:38.787Z,10.76
2022-09-17T00:25:38.740Z,10.76
2022-09-17T00:26:38.731Z,10.78
2022-09-17T00:27:38.711Z,10.72
2022-09-17T00:28:38.728Z,10.72
2022-09-17T00:29:38.700Z,10.75
2022-09-17T00:30:38.693Z,10.74
2022-09-17T00:31:38.732Z,10.74
2022-09-17T00:32:38.660Z,10.74
2022-09-17T00:33:38.654Z,10.75
2022-09-17T00:34:38.640Z,10.75
2022-09-17T00:35:38.634Z,10.75
2022-09-17T00:36:38.620Z,10.75
2022-09-17T00:37:38.608Z,10.78
2022-09-17T00:38:38.614Z,10.78
2022-09-17T00:39:38.592Z,10.78
2022-09-17T00:40:38.614Z,10.78
2022-09-17T00:41:38.560Z,10.79
2022-09-17T00:42:38.552Z,10.78
2022-09-17T00:43:38.533Z,10.78
2022-09-17T00:44:38.544Z,10.76
2022-09-17T00:45:39.899Z,10.74
2022-09-17T00:46:38.594Z,10.74
2022-09-17T00:47:38.504Z,10.72
2022-09-17T00:48:38.504Z,10.74
2022-09-17T00:49:38.464Z,10.72
2022-09-17T00:50:38.479Z,10.72
2022-09-17T00:51:38.452Z,10.72
2022-09-17T00:52:38.440Z,10.69
2022-09-17T00:53:38.468Z,10.69
2022-09-17T00:54:38.418Z,10.68
2022-09-17T00:55:38.406Z,10.68
2022-09-17T00:56:38.384Z,10.67
2022-09-17T00:57:38.412Z,10.68
2022-09-17T00:58:41.232Z,10.71
2022-09-17T00:59:38.367Z,10.68
2022-09-17T01:00:38.394Z,10.69
2022-09-17T01:01:38.412Z,10.69
2022-09-17T01:02:38.312Z,10.71
2022-09-17T01:03:38.333Z,10.71
2022-09-17T01:04:38.293Z,10.69
2022-09-17T01:05:38.301Z,10.69
2022-09-17T01:06:38.284Z,10.69
2022-09-17T01:07:38.265Z,10.68
2022-09-17T01:08:38.252Z,10.68
2022-09-17T01:09:38.274Z,10.68
2022-09-17T01:10:38.232Z,10.68
2022-09-17T01:11:38.221Z,10.71
2022-09-17T01:12:38.193Z,10.69
2022-09-17T01:13:38.206Z,10.71
2022-09-17T01:14:38.198Z,10.69
2022-09-17T01:15:38.184Z,10.72
2022-09-17T01:16:38.156Z,10.69
2022-09-17T01:17:38.153Z,10.67
2022-09-17T01:18:38.153Z,10.67
2022-09-17T01:19:38.144Z,10.68
2022-09-17T01:20:38.157Z,10.68
2022-09-17T01:21:38.114Z,10.68
2022-09-17T01:22:38.093Z,10.64
2022-09-17T01:23:38.113Z,10.64
2022-09-17T01:24:38.065Z,10.63
2022-09-17T01:25:38.072Z,10.63
2022-09-17T01:26:38.056Z,10.63
2022-09-17T01:27:40.510Z,10.64
2022-09-17T01:28:38.026Z,10.67
2022-09-17T01:29:38.047Z,10.67
2022-09-17T01:30:37.997Z,10.64
2022-09-17T01:31:38.030Z,10.63
2022-09-17T01:32:37.995Z,10.63
2022-09-17T01:33:37.997Z,10.60
2022-09-17T01:34:37.966Z,10.57
2022-09-17T01:35:37.958Z,10.57
2022-09-17T01:36:37.937Z,10.57
2022-09-17T01:37:37.937Z,10.57
2022-09-17T01:38:38.025Z,10.54
2022-09-17T01:39:37.917Z,10.54
2022-09-17T01:40:37.886Z,10.56
2022-09-17T01:41:37.887Z,10.56
2022-09-17T01:42:37.865Z,10.57
2022-09-17T01:43:37.864Z,10.56
2022-09-17T01:44:37.857Z,10.51
2022-09-17T01:45:37.840Z,10.53
2022-09-17T01:46:37.896Z,10.53
2022-09-17T01:47:37.817Z,10.54
2022-09-17T01:48:37.799Z,10.57
2022-09-17T01:49:37.818Z,10.56
2022-09-17T01:50:37.777Z,10.54
2022-09-17T01:51:37.777Z,10.56
2022-09-17T01:52:37.745Z,10.53
2022-09-17T01:53:37.757Z,10.51
2022-09-17T01:54:41.723Z,10.51
2022-09-17T01:55:37.737Z,10.53
2022-09-17T01:56:37.705Z,10.49
2022-09-17T01:57:37.707Z,10.51
2022-09-17T01:58:37.698Z,10.49
2022-09-17T01:59:37.685Z,10.51
2022-09-17T02:00:37.690Z,10.51
2022-09-17T02:01:37.698Z,10.49
2022-09-17T02:02:37.645Z,10.48
2022-09-17T02:03:37.637Z,10.46
2022-09-17T02:04:37.641Z,10.46
2022-09-17T02:05:37.618Z,10.46
2022-09-17T02:06:37.599Z,10.48
2022-09-17T02:07:37.586Z,10.46
2022-09-17T02:08:37.580Z,10.44
2022-09-17T02:09:37.569Z,10.42
2022-09-17T02:10:37.558Z,10.42
2022-09-17T02:11:37.549Z,10.41
2022-09-17T02:12:37.530Z,10.40
2022-09-17T02:13:37.533Z,10.37
2022-09-17T02:14:37.517Z,10.35
2022-09-17T02:15:37.523Z,10.37
2022-09-17T02:16:37.485Z,10.34
2022-09-17T02:17:37.477Z,10.34
2022-09-17T02:18:37.465Z,10.33
2022-09-17T02:19:37.469Z,10.31
2022-09-17T02:20:37.450Z,10.30
2022-09-17T02:21:37.430Z,10.28
2022-09-17T02:22:37.410Z,10.26
2022-09-17T02:23:37.419Z,10.26
2022-09-17T02:24:37.391Z,10.25
2022-09-17T02:25:37.398Z,10.25
2022-09-17T02:26:37.370Z,10.23
2022-09-17T02:27:37.369Z,10.19
2022-09-17T02:28:37.350Z,10.17
2022-09-17T02:29:37.338Z,10.19
2022-09-17T02:30:37.338Z,10.16
2022-09-17T02:31:37.333Z,10.16
2022-09-17T02:32:37.298Z,10.16
2022-09-17T02:33:37.297Z,10.16
2022-09-17T02:34:37.281Z,10.15
2022-09-17T02:35:37.270Z,10.10
2022-09-17T02:36:37.745Z,10.10
2022-09-17T02:37:37.270Z,10.10
2022-09-17T02:38:37.238Z,10.09
2022-09-17T02:39:37.238Z,10.09
2022-09-17T02:40:37.295Z,10.09
2022-09-17T02:41:37.222Z,10.05
2022-09-17T02:42:37.180Z,10.05
2022-09-17T02:43:37.190Z,10.04
2022-09-17T02:44:37.170Z,10.05
2022-09-17T02:45:37.162Z,10.02
2022-09-17T02:46:37.262Z,10.02
2022-09-17T02:47:37.142Z,10.01
2022-09-17T02:48:37.122Z,9.99
2022-09-17T02:49:37.118Z,10.01
2022-09-17T02:50:37.103Z,9.99
2022-09-17T02:51:37.130Z,10.02
2022-09-17T02:52:37.078Z,10.04
2022-09-17T02:53:37.071Z,10.02
2022-09-17T02:54:37.066Z,10.04
2022-09-17T02:55:37.050Z,10.02
2022-09-17T02:56:37.183Z,10.02
2022-09-17T02:57:37.042Z,10.02
2022-09-17T02:58:37.003Z,10.02
2022-09-17T02:59:37.010Z,9.99
2022-09-17T03:00:37.066Z,9.97
2022-09-17T03:01:37.007Z,9.97
2022-09-17T03:02:36.963Z,9.94
2022-09-17T03:03:36.963Z,9.94
2022-09-17T03:04:36.950Z,9.92
2022-09-17T03:05:36.938Z,9.92
2022-09-17T03:06:36.930Z,9.91
2022-09-17T03:07:36.910Z,9.86
2022-09-17T03:08:36.890Z,9.84
2022-09-17T03:09:36.902Z,9.84
2022-09-17T03:10:36.903Z,9.82
2022-09-17T03:11:36.883Z,9.83
2022-09-17T03:12:36.851Z,9.83
2022-09-17T03:13:36.842Z,9.84
2022-09-17T03:14:36.830Z,9.82
2022-09-17T03:15:36.822Z,9.82
2022-09-17T03:16:36.850Z,9.80
2022-09-17T03:17:36.804Z,9.79
2022-09-17T03:18:36.809Z,9.79
2022-09-17T03:19:36.783Z,9.79
2022-09-17T03:20:36.753Z,9.76
2022-09-17T03:21:36.751Z,9.74
2022-09-17T03:22:36.734Z,9.73
2022-09-17T03:23:36.743Z,9.72
2022-09-17T03:24:36.723Z,9.72
2022-09-17T03:25:36.735Z,9.68
2022-09-17T03:26:36.711Z,9.68
2022-09-17T03:27:36.699Z,9.66
2022-09-17T03:28:36.671Z,9.65
2022-09-17T03:29:36.665Z,9.62
2022-09-17T03:30:36.647Z,9.62
2022-09-17T03:31:36.762Z,9.64
2022-09-17T03:32:36.634Z,9.62
2022-09-17T03:33:36.623Z,9.64
2022-09-17T03:34:36.603Z,9.59
2022-09-17T03:35:36.611Z,9.61
2022-09-17T03:36:36.924Z,9.61
2022-09-17T03:37:36.590Z,9.59
2022-09-17T03:38:36.572Z,9.59
2022-09-17T03:39:36.564Z,9.59
2022-09-17T03:40:36.581Z,9.61
2022-09-17T03:41:36.535Z,9.61
2022-09-17T03:42:36.524Z,9.59
2022-09-17T03:43:36.503Z,9.59
2022-09-17T03:44:36.491Z,9.58
2022-09-17T03:45:36.486Z,9.59
2022-09-17T03:46:36.526Z,9.61
2022-09-17T03:47:36.463Z,9.62
2022-09-17T03:48:36.431Z,9.61
2022-09-17T03:49:36.431Z,9.65
2022-09-17T03:50:36.415Z,9.64
2022-09-17T03:51:36.415Z,9.64
2022-09-17T03:52:36.411Z,9.64
2022-09-17T03:53:36.395Z,9.64
2022-09-17T03:54:36.384Z,9.65
2022-09-17T03:55:36.365Z,9.65
2022-09-17T03:56:36.531Z,9.64
2022-09-17T03:57:36.367Z,9.62
2022-09-17T03:58:36.328Z,9.64
2022-09-17T03:59:36.343Z,9.62
2022-09-17T04:00:36.304Z,9.64
2022-09-17T04:01:36.435Z,9.62
2022-09-17T04:02:36.405Z,9.64
2022-09-17T04:03:36.283Z,9.65
2022-09-17T04:04:36.273Z,9.65
2022-09-17T04:05:36.287Z,9.62
2022-09-17T04:06:36.235Z,9.61
2022-09-17T04:07:36.233Z,9.59
2022-09-17T04:08:36.224Z,9.58
2022-09-17T04:09:36.215Z,9.59
2022-09-17T04:10:36.216Z,9.58
2022-09-17T04:11:36.184Z,9.58
2022-09-17T04:12:36.191Z,9.56
2022-09-17T04:13:36.165Z,9.56
2022-09-17T04:14:36.156Z,9.54
2022-09-17T04:15:36.144Z,9.54
2022-09-17T04:16:36.664Z,9.51
2022-09-17T04:17:36.117Z,9.51
2022-09-17T04:18:36.584Z,9.51
2022-09-17T04:19:36.096Z,9.51
2022-09-17T04:20:36.077Z,9.50
2022-09-17T04:21:36.085Z,9.50
2022-09-17T04:22:36.044Z,9.50
2022-09-17T04:23:36.057Z,9.51
2022-09-17T04:24:36.032Z,9.50
2022-09-17T04:25:36.025Z,9.50
2022-09-17T04:26:36.028Z,9.48
2022-09-17T04:27:36.017Z,9.48
2022-09-17T04:28:35.983Z,9.48
2022-09-17T04:29:35.998Z,9.47
2022-09-17T04:30:35.964Z,9.47
2022-09-17T04:31:36.053Z,9.47
2022-09-17T04:32:35.949Z,9.47
2022-09-17T04:33:35.940Z,9.48
2022-09-17T04:34:35.924Z,9.48
2022-09-17T04:35:35.917Z,9.47
2022-09-17T04:36:35.925Z,9.47
2022-09-17T04:37:35.896Z,9.44
2022-09-17T04:38:35.884Z,9.46
2022-09-17T04:39:35.877Z,9.44
2022-09-17T04:40:35.941Z,9.46
2022-09-17T04:41:35.878Z,9.43
2022-09-17T04:42:35.845Z,9.41
2022-09-17T04:43:35.836Z,9.40
2022-09-17T04:44:35.816Z,9.41
2022-09-17T04:45:35.785Z,9.40
2022-09-17T04:46:35.857Z,9.37
2022-09-17T04:47:35.816Z,9.39
2022-09-17T04:48:35.776Z,9.36
2022-09-17T04:49:35.756Z,9.37
2022-09-17T04:50:35.756Z,9.36
2022-09-17T04:51:35.741Z,9.36
2022-09-17T04:52:35.749Z,9.36
2022-09-17T04:53:35.706Z,9.34
2022-09-17T04:54:35.732Z,9.31
2022-09-17T04:55:35.709Z,9.29
2022-09-17T04:56:35.715Z,9.29
2022-09-17T04:57:35.669Z,9.29
2022-09-17T04:58:35.672Z,9.29
2022-09-17T04:59:35.637Z,9.28
2022-09-17T05:00:35.748Z,9.28
2022-09-17T05:01:35.617Z,9.29
2022-09-17T05:02:35.618Z,9.28
2022-09-17T05:03:35.608Z,9.28
2022-09-17T05:04:35.591Z,9.28
2022-09-17T05:05:35.566Z,9.29
2022-09-17T05:06:35.577Z,9.28
2022-09-17T05:07:35.556Z,9.29
2022-09-17T05:08:35.570Z,9.28
2022-09-17T05:09:35.528Z,9.28
2022-09-17T05:10:35.530Z,9.26
2022-09-17T05:11:35.502Z,9.26
2022-09-17T05:12:35.511Z,9.25
2022-09-17T05:13:35.489Z,9.23
2022-09-17T05:14:35.469Z,9.23
2022-09-17T05:15:35.457Z,9.22
2022-09-17T05:16:35.733Z,9.23
2022-09-17T05:17:35.437Z,9.25
2022-09-17T05:18:35.448Z,9.23
2022-09-17T05:19:35.409Z,9.21
2022-09-17T05:20:35.436Z,9.22
2022-09-17T05:21:35.389Z,9.23
2022-09-17T05:22:35.393Z,9.23
2022-09-17T05:23:35.377Z,9.25
2022-09-17T05:24:35.378Z,9.25
2022-09-17T05:25:35.366Z,9.25
2022-09-17T05:26:35.349Z,9.25
2022-09-17T05:27:35.357Z,9.23
2022-09-17T05:28:35.331Z,9.23
2022-09-17T05:29:35.323Z,9.26
2022-09-17T05:30:35.352Z,9.26
2022-09-17T05:31:35.379Z,9.25
2022-09-17T05:32:35.278Z,9.26
2022-09-17T05:33:35.249Z,9.26
2022-09-17T05:34:35.277Z,9.28
2022-09-17T05:35:35.229Z,9.32
2022-09-17T05:36:35.257Z,9.34
2022-09-17T05:37:35.209Z,9.32
2022-09-17T05:38:35.209Z,9.34
2022-09-17T05:39:35.183Z,9.34
2022-09-17T05:40:35.309Z,9.36
2022-09-17T05:41:35.177Z,9.37
2022-09-17T05:42:35.163Z,9.40
2022-09-17T05:43:35.130Z,9.36
2022-09-17T05:44:35.142Z,9.41
2022-09-17T05:45:35.144Z,9.41
2022-09-17T05:46:35.188Z,9.43
2022-09-17T05:47:35.097Z,9.43
2022-09-17T05:48:35.098Z,9.44
2022-09-17T05:49:35.077Z,9.43
2022-09-17T05:50:35.089Z,9.46
2022-09-17T05:51:35.098Z,9.47
2022-09-17T05:52:35.062Z,9.47
2022-09-17T05:53:35.034Z,9.47
2022-09-17T05:54:35.030Z,9.47
2022-09-17T05:55:35.011Z,9.48
2022-09-17T05:56:35.018Z,9.51
2022-09-17T05:57:34.990Z,9.55
2022-09-17T05:58:34.991Z,9.58
2022-09-17T05:59:34.958Z,9.58
2022-09-17T06:00:34.970Z,9.59
2022-09-17T06:01:34.997Z,9.62
2022-09-17T06:02:34.990Z,9.64
2022-09-17T06:03:34.909Z,9.64
2022-09-17T06:04:35.291Z,9.68
2022-09-17T06:05:34.899Z,9.69
2022-09-17T06:06:34.897Z,9.73
2022-09-17T06:07:34.878Z,9.74
2022-09-17T06:08:34.870Z,9.77
2022-09-17T06:09:34.838Z,9.80
2022-09-17T06:10:34.850Z,9.80
2022-09-17T06:11:34.841Z,9.84
2022-09-17T06:12:34.822Z,9.87
2022-09-17T06:13:34.810Z,9.89
2022-09-17T06:14:34.802Z,9.92
2022-09-17T06:15:34.796Z,9.91
2022-09-17T06:16:34.857Z,9.95
2022-09-17T06:17:34.750Z,9.97
2022-09-17T06:18:34.762Z,9.98
2022-09-17T06:19:34.731Z,9.99
2022-09-17T06:20:34.730Z,10.01
2022-09-17T06:21:34.722Z,10.04
2022-09-17T06:22:34.723Z,10.07
2022-09-17T06:23:34.683Z,10.07
2022-09-17T06:24:34.691Z,10.09
2022-09-17T06:25:34.762Z,10.10
2022-09-17T06:26:34.682Z,10.13
2022-09-17T06:27:34.650Z,10.15
2022-09-17T06:28:39.100Z,10.15
2022-09-17T06:29:35.622Z,10.15
2022-09-17T06:30:34.631Z,10.16
2022-09-17T06:31:34.664Z,10.19
2022-09-17T06:32:34.615Z,10.19
2022-09-17T06:33:34.571Z,10.20
2022-09-17T06:34:34.571Z,10.22
2022-09-17T06:35:34.542Z,10.22
2022-09-17T06:36:34.562Z,10.25
2022-09-17T06:37:34.530Z,10.25
2022-09-17T06:38:34.530Z,10.30
2022-09-17T06:39:34.522Z,10.31
2022-09-17T06:40:34.547Z,10.31
2022-09-17T06:41:34.503Z,10.30
2022-09-17T06:42:34.479Z,10.31
2022-09-17T06:43:34.471Z,10.31
2022-09-17T06:44:34.462Z,10.33
2022-09-17T06:45:34.451Z,10.33
2022-09-17T06:46:34.459Z,10.30
2022-09-17T06:47:34.412Z,10.30
2022-09-17T06:48:34.411Z,10.31
2022-09-17T06:49:34.391Z,10.30
2022-09-17T06:50:35.228Z,10.28
2022-09-17T06:51:34.375Z,10.26
2022-09-17T06:52:34.382Z,10.25
2022-09-17T06:53:34.351Z,10.25
2022-09-17T06:54:34.343Z,10.23
2022-09-17T06:55:34.327Z,10.22
2022-09-17T06:56:34.326Z,10.19
2022-09-17T06:57:34.322Z,10.19
2022-09-17T06:58:34.320Z,10.16
2022-09-17T06:59:34.292Z,10.19
2022-09-17T07:00:34.286Z,10.20
2022-09-17T07:01:34.322Z,10.20
2022-09-17T07:02:34.275Z,10.22
2022-09-17T07:03:34.252Z,10.22
2022-09-17T07:04:34.235Z,10.22
2022-09-17T07:05:34.529Z,10.25
2022-09-17T07:06:34.223Z,10.30
2022-09-17T07:07:34.198Z,10.31
2022-09-17T07:08:34.198Z,10.34
2022-09-17T07:09:34.171Z,10.35
2022-09-17T07:10:34.163Z,10.40
2022-09-17T07:11:34.155Z,10.41
2022-09-17T07:12:34.145Z,10.46
2022-09-17T07:13:34.136Z,10.48
2022-09-17T07:14:34.130Z,10.53
2022-09-17T07:15:34.103Z,10.56
2022-09-17T07:16:34.163Z,10.56
2022-09-17T07:17:34.083Z,10.57
2022-09-17T07:18:34.123Z,10.64
2022-09-17T07:19:34.051Z,10.68
2022-09-17T07:20:34.049Z,10.68
2022-09-17T07:21:34.044Z,10.71
2022-09-17T07:22:34.024Z,10.72
2022-09-17T07:23:34.030Z,10.75
2022-09-17T07:24:34.003Z,10.78
2022-09-17T07:25:34.043Z,10.79
2022-09-17T07:26:33.979Z,10.82
2022-09-17T07:27:33.963Z,10.84
2022-09-17T07:28:33.963Z,10.86
2022-09-17T07:29:33.939Z,10.90
2022-09-17T07:30:33.935Z,10.94
2022-09-17T07:31:33.945Z,10.97
2022-09-17T07:32:33.917Z,11.00
2022-09-17T07:33:33.904Z,11.04
2022-09-17T07:34:33.897Z,11.05
2022-09-17T07:35:33.876Z,11.08
2022-09-17T07:36:33.866Z,11.10
2022-09-17T07:37:33.847Z,11.11
2022-09-17T07:38:33.859Z,11.11
2022-09-17T07:39:33.825Z,11.11
2022-09-17T07:40:33.866Z,11.15
2022-09-17T07:41:33.816Z,11.14
2022-09-17T07:42:33.787Z,11.15
2022-09-17T07:43:33.856Z,11.18
2022-09-17T07:44:33.764Z,11.19
2022-09-17T07:45:33.973Z,11.19
2022-09-17T07:46:33.789Z,11.23
2022-09-17T07:47:33.736Z,11.25
2022-09-17T07:48:33.744Z,11.29
2022-09-17T07:49:33.732Z,11.33
2022-09-17T07:50:33.704Z,11.35
2022-09-17T07:51:33.702Z,11.37
2022-09-17T07:52:33.686Z,11.43
2022-09-17T07:53:33.696Z,11.44
2022-09-17T07:54:33.657Z,11.50
2022-09-17T07:55:33.654Z,11.54
2022-09-17T07:56:33.644Z,11.54
2022-09-17T07:57:33.624Z,11.59
2022-09-17T07:58:33.668Z,11.63
2022-09-17T07:59:33.616Z,11.66
2022-09-17T08:00:33.598Z,11.68
2022-09-17T08:01:33.660Z,11.68
2022-09-17T08:02:33.657Z,11.70
2022-09-17T08:03:33.565Z,11.73
2022-09-17T08:04:33.557Z,11.77
2022-09-17T08:05:33.545Z,11.80
2022-09-17T08:06:33.517Z,11.81
2022-09-17T08:07:33.517Z,11.83
2022-09-17T08:08:33.497Z,11.84
2022-09-17T08:09:33.596Z,11.87
2022-09-17T08:10:33.477Z,11.90
2022-09-17T08:12:34.449Z,11.95
2022-09-17T08:13:33.456Z,11.97
2022-09-17T08:14:33.430Z,12.00
2022-09-17T08:15:33.438Z,12.03
2022-09-17T08:16:33.458Z,12.06
2022-09-17T08:17:33.417Z,12.09
2022-09-17T08:18:33.396Z,12.13
2022-09-17T08:19:33.397Z,12.18
2022-09-17T08:20:33.360Z,12.21
2022-09-17T08:21:33.364Z,12.24
2022-09-17T08:22:33.336Z,12.27
2022-09-17T08:23:33.349Z,12.35
2022-09-17T08:24:33.330Z,12.40
2022-09-17T08:25:33.317Z,12.46
2022-09-17T08:26:33.297Z,12.53
2022-09-17T08:27:33.297Z,12.53
2022-09-17T08:28:33.269Z,12.54
2022-09-17T08:29:35.411Z,12.54
2022-09-17T08:30:33.249Z,12.58
2022-09-17T08:31:33.413Z,12.62
2022-09-17T08:32:33.229Z,12.67
2022-09-17T08:33:33.222Z,12.70
2022-09-17T08:34:33.469Z,12.73
2022-09-17T08:35:33.222Z,12.79
2022-09-17T08:36:33.189Z,12.86
2022-09-17T08:37:33.189Z,12.90
2022-09-17T08:38:37.694Z,12.85
2022-09-17T08:39:34.158Z,12.83
2022-09-17T08:40:33.181Z,12.86
2022-09-17T08:41:33.138Z,12.93
2022-09-17T08:42:33.129Z,12.98
2022-09-17T08:43:33.109Z,13.12
2022-09-17T08:44:33.097Z,13.20
2022-09-17T08:45:33.117Z,13.15
2022-09-17T08:46:33.155Z,13.11
2022-09-17T08:47:33.069Z,13.13
2022-09-17T08:48:33.049Z,13.13
2022-09-17T08:49:33.037Z,13.13
2022-09-17T08:50:33.029Z,13.13
2022-09-17T08:51:33.041Z,13.19
2022-09-17T08:52:33.008Z,13.20
2022-09-17T08:53:33.002Z,13.20
2022-09-17T08:54:32.983Z,13.27
2022-09-17T08:55:32.989Z,13.28
2022-09-17T08:56:32.961Z,13.37
2022-09-17T08:57:32.949Z,13.49
2022-09-17T08:58:32.929Z,13.47
2022-09-17T08:59:32.929Z,13.46
2022-09-17T09:00:32.929Z,13.38
2022-09-17T09:01:32.960Z,13.35
2022-09-17T09:02:32.966Z,13.31
2022-09-17T09:03:32.881Z,13.38
2022-09-17T09:04:32.869Z,13.38
2022-09-17T09:05:32.885Z,13.47
2022-09-17T09:06:32.870Z,13.62
2022-09-17T09:07:32.841Z,13.65
2022-09-17T09:08:32.821Z,13.67
2022-09-17T09:09:32.822Z,13.70
2022-09-17T09:10:32.827Z,13.68
2022-09-17T09:11:32.801Z,13.67
2022-09-17T09:12:32.783Z,13.62
2022-09-17T09:13:32.792Z,13.59
2022-09-17T09:14:33.220Z,13.52
2022-09-17T09:15:32.753Z,13.54
2022-09-17T09:16:32.795Z,13.62
2022-09-17T09:17:32.733Z,13.68
2022-09-17T09:18:32.716Z,13.74
2022-09-17T09:19:32.714Z,13.79
2022-09-17T09:20:32.792Z,13.95
2022-09-17T09:21:32.684Z,14.07
2022-09-17T09:22:32.672Z,14.05
2022-09-17T09:23:32.673Z,14.05
2022-09-17T09:24:32.652Z,14.05
2022-09-17T09:25:32.632Z,14.12
2022-09-17T09:26:32.632Z,14.08
2022-09-17T09:27:32.612Z,13.97
2022-09-17T09:28:32.612Z,13.87
2022-09-17T09:29:32.611Z,13.93
2022-09-17T09:30:32.581Z,13.95
2022-09-17T09:31:32.621Z,13.96
2022-09-17T09:32:32.544Z,14.05
2022-09-17T09:33:32.538Z,14.17
2022-09-17T09:34:32.544Z,14.22
2022-09-17T09:35:32.527Z,14.28
2022-09-17T09:36:32.504Z,14.43
2022-09-17T09:37:32.593Z,14.47
2022-09-17T09:38:32.472Z,14.50
2022-09-17T09:39:39.186Z,14.44
2022-09-17T09:40:33.547Z,14.51
2022-09-17T09:41:32.473Z,14.51
2022-09-17T09:42:32.447Z,14.47
2022-09-17T09:43:46.658Z,14.51
2022-09-17T09:45:43.528Z,14.53
2022-09-17T09:46:43.575Z,14.54
2022-09-17T09:47:43.499Z,14.55
2022-09-17T09:48:43.492Z,14.48
2022-09-17T09:49:43.460Z,14.44
2022-09-17T09:51:05.307Z,14.45
2022-09-17T09:51:44.822Z,14.41
2022-09-17T09:52:43.448Z,14.30
2022-09-17T09:53:43.420Z,14.23
2022-09-17T09:54:43.413Z,14.23
2022-09-17T09:55:43.400Z,14.26
2022-09-17T09:56:43.400Z,14.29
2022-09-17T09:57:43.374Z,14.33
2022-09-17T09:58:43.359Z,14.37
2022-09-17T09:59:43.388Z,14.37
2022-09-17T10:00:43.333Z,14.43
2022-09-17T10:01:43.402Z,14.44
2022-09-17T10:02:43.439Z,14.40
2022-09-17T10:03:43.313Z,14.36
2022-09-17T10:04:43.304Z,14.36
2022-09-17T10:05:43.293Z,14.33
2022-09-17T10:06:43.279Z,14.30
2022-09-17T10:07:43.293Z,14.22
2022-09-17T10:08:43.246Z,14.20
2022-09-17T10:09:43.253Z,14.11
2022-09-17T10:10:43.233Z,14.15
2022-09-17T10:11:43.225Z,14.29
2022-09-17T10:12:43.235Z,14.37
2022-09-17T10:13:43.201Z,14.48
2022-09-17T10:14:43.188Z,14.59
2022-09-17T10:15:43.282Z,14.68
2022-09-17T10:16:43.165Z,14.51
2022-09-17T10:17:43.181Z,14.54
2022-09-17T10:18:43.141Z,14.70
2022-09-17T10:19:43.140Z,14.82
2022-09-17T10:20:43.113Z,14.79
2022-09-17T10:21:43.117Z,14.85
2022-09-17T10:22:43.133Z,14.81
2022-09-17T10:23:43.093Z,14.81
2022-09-17T10:24:43.107Z,14.81
2022-09-17T10:25:43.077Z,14.79
2022-09-17T10:26:43.061Z,14.88
2022-09-17T10:27:43.069Z,14.97
2022-09-17T10:28:43.046Z,15.09
2022-09-17T10:29:43.027Z,15.06
2022-09-17T10:30:43.007Z,14.94
2022-09-17T10:31:43.095Z,14.82
2022-09-17T10:32:43.039Z,14.81
2022-09-17T10:33:42.973Z,14.84
2022-09-17T10:34:42.966Z,14.91
2022-09-17T10:35:42.961Z,14.86
2022-09-17T10:36:42.937Z,14.88
2022-09-17T10:37:42.974Z,14.96
2022-09-17T10:38:42.929Z,15.03
2022-09-17T10:39:42.950Z,14.99
2022-09-17T10:40:42.926Z,14.91
2022-09-17T10:41:42.898Z,14.82
2022-09-17T10:42:42.866Z,14.63
2022-09-17T10:43:42.905Z,14.51
2022-09-17T10:44:42.853Z,14.44
2022-09-17T10:45:42.871Z,14.41
2022-09-17T10:46:42.851Z,14.43
2022-09-17T10:47:42.841Z,14.47
2022-09-17T10:48:42.818Z,14.58
2022-09-17T10:49:42.810Z,14.63
2022-09-17T10:50:42.790Z,14.73
2022-09-17T10:51:42.793Z,14.89
2022-09-17T10:52:42.758Z,15.06
2022-09-17T10:53:42.781Z,15.15
2022-09-17T10:54:42.786Z,15.17
2022-09-17T10:55:42.732Z,15.04
2022-09-17T10:56:42.722Z,14.96
2022-09-17T10:57:42.707Z,14.86
2022-09-17T10:58:42.701Z,14.60
2022-09-17T10:59:42.691Z,14.36
2022-09-17T11:00:42.669Z,13.89
2022-09-17T11:01:42.811Z,13.54
2022-09-17T11:02:42.668Z,13.37
2022-09-17T11:03:42.637Z,13.28
2022-09-17T11:04:42.638Z,13.20
2022-09-17T11:05:42.642Z,13.09
2022-09-17T11:06:42.609Z,12.98
2022-09-17T11:07:42.593Z,13.01
2022-09-17T11:08:42.602Z,13.05
2022-09-17T11:09:42.559Z,13.09
2022-09-17T11:10:42.567Z,13.20
2022-09-17T11:11:42.542Z,13.35
2022-09-17T11:12:42.558Z,13.42
2022-09-17T11:13:42.530Z,13.57
2022-09-17T11:14:42.762Z,13.68
2022-09-17T11:15:42.578Z,13.78
2022-09-17T11:16:42.573Z,13.93
2022-09-17T11:17:42.566Z,14.05
2022-09-17T11:18:42.609Z,14.14
2022-09-17T11:19:42.628Z,14.25
2022-09-17T11:20:42.582Z,14.30
2022-09-17T11:21:42.672Z,14.33
2022-09-17T11:22:42.658Z,14.33
2022-09-17T11:23:42.706Z,14.33
2022-09-17T11:24:42.446Z,14.40
2022-09-17T11:25:42.374Z,14.51
2022-09-17T11:26:42.430Z,14.62
2022-09-17T11:27:42.374Z,14.77
2022-09-17T11:28:42.371Z,14.82
2022-09-17T11:29:42.363Z,14.78
2022-09-17T11:30:42.332Z,14.78
2022-09-17T11:31:42.410Z,14.79
2022-09-17T11:32:42.322Z,14.86
2022-09-17T11:33:42.294Z,14.96
2022-09-17T11:34:42.343Z,15.02
2022-09-17T11:35:42.262Z,15.02
2022-09-17T11:36:42.286Z,15.11
2022-09-17T11:37:42.262Z,15.07
2022-09-17T11:38:42.247Z,15.10
2022-09-17T11:39:42.254Z,15.18
2022-09-17T11:40:42.235Z,15.22
2022-09-17T11:41:42.267Z,15.19
2022-09-17T11:42:42.230Z,15.21
2022-09-17T11:43:42.178Z,15.19
2022-09-17T11:44:42.211Z,15.07
2022-09-17T11:45:42.188Z,14.89
2022-09-17T11:46:42.191Z,14.79
2022-09-17T11:47:42.136Z,14.70
2022-09-17T11:48:42.139Z,14.63
2022-09-17T11:49:42.122Z,14.51
2022-09-17T11:50:42.135Z,14.53
2022-09-17T11:51:42.094Z,14.50
2022-09-17T11:52:42.096Z,14.41
2022-09-17T11:53:42.066Z,14.40
2022-09-17T11:54:42.076Z,14.41
2022-09-17T11:55:42.059Z,14.43
2022-09-17T11:56:42.058Z,14.41
2022-09-17T11:57:42.035Z,14.40
2022-09-17T11:58:42.028Z,14.37
2022-09-17T11:59:42.027Z,14.29
2022-09-17T12:00:42.011Z,14.18
2022-09-17T12:01:42.649Z,14.12
2022-09-17T12:02:42.040Z,14.12
2022-09-17T12:03:41.955Z,14.11
2022-09-17T12:04:42.024Z,14.14
2022-09-17T12:05:41.954Z,14.14
2022-09-17T12:06:41.946Z,14.15
2022-09-17T12:07:41.927Z,14.20
2022-09-17T12:08:41.908Z,14.33
2022-09-17T12:09:41.896Z,14.53
2022-09-17T12:10:41.911Z,14.81
2022-09-17T12:11:41.879Z,15.09
2022-09-17T12:13:03.591Z,15.27
2022-09-17T12:13:41.859Z,15.40
2022-09-17T12:14:41.855Z,15.52
2022-09-17T12:15:41.931Z,15.64
2022-09-17T12:16:41.863Z,15.75
2022-09-17T12:17:41.809Z,15.82
2022-09-17T12:18:41.852Z,15.94
2022-09-17T12:19:41.792Z,16.01
2022-09-17T12:20:41.779Z,16.16
2022-09-17T12:21:41.850Z,16.16
2022-09-17T12:22:41.816Z,16.12
2022-09-17T12:23:41.856Z,16.10
2022-09-17T12:24:41.807Z,16.23
2022-09-17T12:25:41.815Z,16.20
2022-09-17T12:26:41.831Z,16.12
2022-09-17T12:27:41.852Z,16.02
2022-09-17T12:28:41.951Z,15.97
2022-09-17T12:29:41.903Z,15.83
2022-09-17T12:30:41.892Z,15.72
2022-09-17T12:31:41.964Z,15.68
2022-09-17T12:32:41.903Z,15.68
2022-09-17T12:33:42.079Z,15.73
2022-09-17T12:34:41.920Z,15.90
2022-09-17T12:36:02.935Z,15.98
2022-09-17T12:36:42.599Z,16.05
2022-09-17T12:37:41.899Z,16.00
2022-09-17T12:38:41.844Z,16.01
2022-09-17T12:39:41.884Z,16.17
2022-09-17T12:40:41.924Z,16.26
2022-09-17T12:41:41.539Z,16.33
2022-09-17T12:42:41.540Z,16.15
2022-09-17T12:43:41.540Z,16.10
2022-09-17T12:44:41.513Z,15.98
2022-09-17T12:45:41.549Z,15.82
2022-09-17T12:46:42.455Z,15.62
2022-09-17T12:47:41.504Z,15.54
2022-09-17T12:48:41.452Z,15.52
2022-09-17T12:49:41.463Z,15.51
2022-09-17T12:50:41.471Z,15.46
2022-09-17T12:51:41.433Z,15.33
2022-09-17T12:52:41.412Z,15.28
2022-09-17T12:53:41.525Z,15.33
2022-09-17T12:54:45.104Z,15.44
2022-09-17T12:55:41.396Z,15.59
2022-09-17T12:56:41.364Z,15.72
2022-09-17T12:57:41.364Z,15.84
2022-09-17T12:58:41.545Z,15.88
2022-09-17T12:59:41.344Z,15.76
2022-09-17T13:00:41.382Z,15.65
2022-09-17T13:01:41.352Z,15.61